sensor_id;sensor_type;location;lat;lon;timestamp;temperature;humidity
18177;DHT22;9213;50.858;3.964;2022-09-27T00:01:23;14.80;63.70
18177;DHT22;9213;50.858;3.964;2022-09-27T00:03:52;14.80;64.40
18177;DHT22;9213;50.858;3.964;2022-09-27T00:06:23;14.80;63.70
18177;DHT22;9213;50.858;3.964;2022-09-27T00:08:50;14.80;64.50
18177;DHT22;9213;50.858;3.964;2022-09-27T00:11:24;14.80;63.60
18177;DHT22;9213;50.858;3.964;2022-09-27T00:13:51;14.80;63.70
18177;DHT22;9213;50.858;3.964;2022-09-27T00:16:20;14.90;63.60
18177;DHT22;9213;50.858;3.964;2022-09-27T00:18:49;14.90;63.60
18177;DHT22;9213;50.858;3.964;2022-09-27T00:21:16;14.90;63.60
18177;DHT22;9213;50.858;3.964;2022-09-27T00:23:43;14.90;63.40
18177;DHT22;9213;50.858;3.964;2022-09-27T00:26:11;14.90;63.30
18177;DHT22;9213;50.858;3.964;2022-09-27T00:28:38;14.90;63.00
18177;DHT22;9213;50.858;3.964;2022-09-27T00:31:13;14.90;62.90
18177;DHT22;9213;50.858;3.964;2022-09-27T00:33:40;14.90;63.10
18177;DHT22;9213;50.858;3.964;2022-09-27T00:36:08;14.90;63.80
18177;DHT22;9213;50.858;3.964;2022-09-27T00:38:35;14.90;63.90
18177;DHT22;9213;50.858;3.964;2022-09-27T00:41:02;14.90;63.20
18177;DHT22;9213;50.858;3.964;2022-09-27T00:43:42;14.90;63.50
18177;DHT22;9213;50.858;3.964;2022-09-27T00:46:10;15.00;63.40
18177;DHT22;9213;50.858;3.964;2022-09-27T00:48:40;15.00;63.70
18177;DHT22;9213;50.858;3.964;2022-09-27T00:51:08;15.00;62.80
18177;DHT22;9213;50.858;3.964;2022-09-27T00:53:38;14.90;62.70
18177;DHT22;9213;50.858;3.964;2022-09-27T00:56:09;14.90;62.50
18177;DHT22;9213;50.858;3.964;2022-09-27T00:58:42;14.80;62.40
18177;DHT22;9213;50.858;3.964;2022-09-27T01:01:10;14.70;62.60
18177;DHT22;9213;50.858;3.964;2022-09-27T01:03:43;14.60;62.70
18177;DHT22;9213;50.858;3.964;2022-09-27T01:06:13;14.60;63.10
18177;DHT22;9213;50.858;3.964;2022-09-27T01:08:41;14.50;63.40
18177;DHT22;9213;50.858;3.964;2022-09-27T01:11:13;14.50;64.10
18177;DHT22;9213;50.858;3.964;2022-09-27T01:13:53;14.50;63.40
18177;DHT22;9213;50.858;3.964;2022-09-27T01:16:31;14.50;63.40
18177;DHT22;9213;50.858;3.964;2022-09-27T01:19:08;14.50;63.50
18177;DHT22;9213;50.858;3.964;2022-09-27T01:21:52;14.50;63.60
18177;DHT22;9213;50.858;3.964;2022-09-27T01:27:54;14.50;63.80
18177;DHT22;9213;50.858;3.964;2022-09-27T01:30:36;14.50;63.60
18177;DHT22;9213;50.858;3.964;2022-09-27T01:33:16;14.50;63.40
18177;DHT22;9213;50.858;3.964;2022-09-27T01:36:01;14.50;63.50
18177;DHT22;9213;50.858;3.964;2022-09-27T01:38:36;14.50;63.60
18177;DHT22;9213;50.858;3.964;2022-09-27T01:41:13;14.50;63.40
18177;DHT22;9213;50.858;3.964;2022-09-27T01:43:44;14.50;63.50
18177;DHT22;9213;50.858;3.964;2022-09-27T01:46:17;14.50;63.50
18177;DHT22;9213;50.858;3.964;2022-09-27T01:48:48;14.50;63.80
18177;DHT22;9213;50.858;3.964;2022-09-27T01:51:17;14.50;63.80
18177;DHT22;9213;50.858;3.964;2022-09-27T01:53:47;14.50;64.00
18177;DHT22;9213;50.858;3.964;2022-09-27T01:56:21;14.60;64.00
18177;DHT22;9213;50.858;3.964;2022-09-27T01:58:52;14.60;63.80
18177;DHT22;9213;50.858;3.964;2022-09-27T02:01:23;14.60;63.60
18177;DHT22;9213;50.858;3.964;2022-09-27T02:03:53;14.60;63.80
18177;DHT22;9213;50.858;3.964;2022-09-27T02:06:24;14.60;63.80
18177;DHT22;9213;50.858;3.964;2022-09-27T02:09:00;14.50;63.90
18177;DHT22;9213;50.858;3.964;2022-09-27T02:11:29;14.50;63.70
18177;DHT22;9213;50.858;3.964;2022-09-27T02:13:59;14.50;63.70
18177;DHT22;9213;50.858;3.964;2022-09-27T02:16:35;14.60;64.50
18177;DHT22;9213;50.858;3.964;2022-09-27T02:19:09;14.50;63.60
18177;DHT22;9213;50.858;3.964;2022-09-27T02:21:43;14.50;63.50
18177;DHT22;9213;50.858;3.964;2022-09-27T02:24:20;14.50;63.60
18177;DHT22;9213;50.858;3.964;2022-09-27T02:26:53;14.60;63.60
18177;DHT22;9213;50.858;3.964;2022-09-27T02:29:25;14.60;63.50
18177;DHT22;9213;50.858;3.964;2022-09-27T02:31:55;14.60;63.60
18177;DHT22;9213;50.858;3.964;2022-09-27T02:34:23;14.60;63.60
18177;DHT22;9213;50.858;3.964;2022-09-27T02:36:52;14.60;63.50
18177;DHT22;9213;50.858;3.964;2022-09-27T02:39:19;14.50;63.40
18177;DHT22;9213;50.858;3.964;2022-09-27T02:41:46;14.50;63.40
18177;DHT22;9213;50.858;3.964;2022-09-27T02:44:15;14.50;63.40
18177;DHT22;9213;50.858;3.964;2022-09-27T02:47:04;14.50;63.50
18177;DHT22;9213;50.858;3.964;2022-09-27T02:49:47;14.60;63.50
18177;DHT22;9213;50.858;3.964;2022-09-27T02:52:23;14.50;63.30
18177;DHT22;9213;50.858;3.964;2022-09-27T02:54:59;14.50;63.40
18177;DHT22;9213;50.858;3.964;2022-09-27T02:57:35;14.50;63.40
18177;DHT22;9213;50.858;3.964;2022-09-27T03:00:06;14.50;63.50
18177;DHT22;9213;50.858;3.964;2022-09-27T03:02:40;14.40;63.40
18177;DHT22;9213;50.858;3.964;2022-09-27T03:05:15;14.50;63.70
18177;DHT22;9213;50.858;3.964;2022-09-27T03:07:43;14.50;63.70
18177;DHT22;9213;50.858;3.964;2022-09-27T03:10:15;14.40;63.40
18177;DHT22;9213;50.858;3.964;2022-09-27T03:12:42;14.40;63.50
18177;DHT22;9213;50.858;3.964;2022-09-27T03:15:09;14.40;63.50
18177;DHT22;9213;50.858;3.964;2022-09-27T03:17:37;14.40;63.50
18177;DHT22;9213;50.858;3.964;2022-09-27T03:20:05;14.40;63.40
18177;DHT22;9213;50.858;3.964;2022-09-27T03:22:32;14.40;63.30
18177;DHT22;9213;50.858;3.964;2022-09-27T03:24:59;14.40;63.30
18177;DHT22;9213;50.858;3.964;2022-09-27T03:27:26;14.40;63.40
18177;DHT22;9213;50.858;3.964;2022-09-27T03:29:52;14.30;63.40
18177;DHT22;9213;50.858;3.964;2022-09-27T03:32:19;14.30;63.40
18177;DHT22;9213;50.858;3.964;2022-09-27T03:34:47;14.30;63.40
18177;DHT22;9213;50.858;3.964;2022-09-27T03:37:14;14.30;63.50
18177;DHT22;9213;50.858;3.964;2022-09-27T03:39:41;14.20;63.40
18177;DHT22;9213;50.858;3.964;2022-09-27T03:42:08;14.20;63.40
18177;DHT22;9213;50.858;3.964;2022-09-27T03:44:35;14.10;63.50
18177;DHT22;9213;50.858;3.964;2022-09-27T03:47:01;14.10;63.60
18177;DHT22;9213;50.858;3.964;2022-09-27T03:49:28;14.10;63.70
18177;DHT22;9213;50.858;3.964;2022-09-27T03:51:58;14.10;63.80
18177;DHT22;9213;50.858;3.964;2022-09-27T03:54:25;14.10;63.90
18177;DHT22;9213;50.858;3.964;2022-09-27T03:56:52;14.00;63.70
18177;DHT22;9213;50.858;3.964;2022-09-27T03:59:18;14.00;63.70
18177;DHT22;9213;50.858;3.964;2022-09-27T04:01:45;14.10;63.70
18177;DHT22;9213;50.858;3.964;2022-09-27T04:04:12;14.10;63.70
18177;DHT22;9213;50.858;3.964;2022-09-27T04:06:39;14.10;63.50
18177;DHT22;9213;50.858;3.964;2022-09-27T04:09:07;14.00;63.20
18177;DHT22;9213;50.858;3.964;2022-09-27T04:11:34;14.00;63.30
18177;DHT22;9213;50.858;3.964;2022-09-27T04:14:01;14.00;63.40
18177;DHT22;9213;50.858;3.964;2022-09-27T04:16:29;14.00;63.40
18177;DHT22;9213;50.858;3.964;2022-09-27T04:18:56;14.00;63.40
18177;DHT22;9213;50.858;3.964;2022-09-27T04:21:23;14.00;63.30
18177;DHT22;9213;50.858;3.964;2022-09-27T04:23:50;13.90;63.20
18177;DHT22;9213;50.858;3.964;2022-09-27T04:26:18;13.90;63.00
18177;DHT22;9213;50.858;3.964;2022-09-27T04:28:46;13.90;63.10
18177;DHT22;9213;50.858;3.964;2022-09-27T04:31:15;13.90;63.10
18177;DHT22;9213;50.858;3.964;2022-09-27T04:33:42;13.80;63.90
18177;DHT22;9213;50.858;3.964;2022-09-27T04:36:11;13.80;63.20
18177;DHT22;9213;50.858;3.964;2022-09-27T04:38:52;13.80;63.10
18177;DHT22;9213;50.858;3.964;2022-09-27T04:41:21;13.80;63.00
18177;DHT22;9213;50.858;3.964;2022-09-27T04:43:49;13.70;62.90
18177;DHT22;9213;50.858;3.964;2022-09-27T04:46:16;13.70;63.00
18177;DHT22;9213;50.858;3.964;2022-09-27T04:48:43;13.70;63.00
18177;DHT22;9213;50.858;3.964;2022-09-27T04:51:14;13.70;63.00
18177;DHT22;9213;50.858;3.964;2022-09-27T04:53:42;13.70;63.10
18177;DHT22;9213;50.858;3.964;2022-09-27T04:56:09;13.60;62.90
18177;DHT22;9213;50.858;3.964;2022-09-27T04:58:37;13.60;62.90
18177;DHT22;9213;50.858;3.964;2022-09-27T05:01:05;13.60;63.00
18177;DHT22;9213;50.858;3.964;2022-09-27T05:03:32;13.60;63.00
18177;DHT22;9213;50.858;3.964;2022-09-27T05:05:59;13.60;63.00
18177;DHT22;9213;50.858;3.964;2022-09-27T05:08:26;13.60;63.10
18177;DHT22;9213;50.858;3.964;2022-09-27T05:10:53;13.60;63.10
18177;DHT22;9213;50.858;3.964;2022-09-27T05:13:21;13.60;62.90
18177;DHT22;9213;50.858;3.964;2022-09-27T05:15:49;13.60;62.80
18177;DHT22;9213;50.858;3.964;2022-09-27T05:18:16;13.70;62.80
18177;DHT22;9213;50.858;3.964;2022-09-27T05:20:43;13.60;62.70
18177;DHT22;9213;50.858;3.964;2022-09-27T05:23:10;13.60;62.40
18177;DHT22;9213;50.858;3.964;2022-09-27T05:25:37;13.60;62.30
18177;DHT22;9213;50.858;3.964;2022-09-27T05:28:04;13.60;62.40
18177;DHT22;9213;50.858;3.964;2022-09-27T05:30:31;13.60;62.30
18177;DHT22;9213;50.858;3.964;2022-09-27T05:33:00;13.60;62.10
18177;DHT22;9213;50.858;3.964;2022-09-27T05:35:27;13.60;62.10
18177;DHT22;9213;50.858;3.964;2022-09-27T05:37:55;13.60;62.20
18177;DHT22;9213;50.858;3.964;2022-09-27T05:40:23;13.50;62.10
18177;DHT22;9213;50.858;3.964;2022-09-27T05:42:51;13.60;62.10
18177;DHT22;9213;50.858;3.964;2022-09-27T05:45:19;13.50;62.10
18177;DHT22;9213;50.858;3.964;2022-09-27T05:47:53;13.50;62.00
18177;DHT22;9213;50.858;3.964;2022-09-27T05:50:22;13.50;62.20
18177;DHT22;9213;50.858;3.964;2022-09-27T05:52:49;13.50;62.10
18177;DHT22;9213;50.858;3.964;2022-09-27T05:55:16;13.50;62.10
18177;DHT22;9213;50.858;3.964;2022-09-27T05:57:53;13.50;62.20
18177;DHT22;9213;50.858;3.964;2022-09-27T06:00:20;13.50;62.30
18177;DHT22;9213;50.858;3.964;2022-09-27T06:02:52;13.50;62.10
18177;DHT22;9213;50.858;3.964;2022-09-27T06:05:22;13.50;62.30
18177;DHT22;9213;50.858;3.964;2022-09-27T06:07:49;13.50;62.30
18177;DHT22;9213;50.858;3.964;2022-09-27T06:10:17;13.50;62.20
18177;DHT22;9213;50.858;3.964;2022-09-27T06:12:44;13.50;62.20
18177;DHT22;9213;50.858;3.964;2022-09-27T06:15:11;13.50;62.20
18177;DHT22;9213;50.858;3.964;2022-09-27T06:17:39;13.50;62.30
18177;DHT22;9213;50.858;3.964;2022-09-27T06:20:06;13.50;62.30
18177;DHT22;9213;50.858;3.964;2022-09-27T06:22:35;13.50;62.30
18177;DHT22;9213;50.858;3.964;2022-09-27T06:25:03;13.50;63.30
18177;DHT22;9213;50.858;3.964;2022-09-27T06:27:30;13.50;62.90
18177;DHT22;9213;50.858;3.964;2022-09-27T06:29:57;13.60;63.00
18177;DHT22;9213;50.858;3.964;2022-09-27T06:32:24;13.70;63.00
18177;DHT22;9213;50.858;3.964;2022-09-27T06:34:51;13.80;62.70
18177;DHT22;9213;50.858;3.964;2022-09-27T06:37:18;13.90;62.60
18177;DHT22;9213;50.858;3.964;2022-09-27T06:39:46;14.00;62.40
18177;DHT22;9213;50.858;3.964;2022-09-27T06:42:13;14.10;62.30
18177;DHT22;9213;50.858;3.964;2022-09-27T06:44:43;14.10;62.00
18177;DHT22;9213;50.858;3.964;2022-09-27T06:47:11;14.10;61.70
18177;DHT22;9213;50.858;3.964;2022-09-27T06:49:38;14.10;61.60
18177;DHT22;9213;50.858;3.964;2022-09-27T06:52:05;14.10;61.60
18177;DHT22;9213;50.858;3.964;2022-09-27T06:54:32;14.00;61.70
18177;DHT22;9213;50.858;3.964;2022-09-27T06:57:00;14.00;61.90
18177;DHT22;9213;50.858;3.964;2022-09-27T06:59:27;13.90;62.00
18177;DHT22;9213;50.858;3.964;2022-09-27T07:02:11;13.90;62.20
18177;DHT22;9213;50.858;3.964;2022-09-27T07:04:38;13.80;62.20
18177;DHT22;9213;50.858;3.964;2022-09-27T07:07:05;13.80;62.40
18177;DHT22;9213;50.858;3.964;2022-09-27T07:09:32;13.80;62.50
18177;DHT22;9213;50.858;3.964;2022-09-27T07:12:00;13.70;62.60
18177;DHT22;9213;50.858;3.964;2022-09-27T07:14:27;13.70;62.60
18177;DHT22;9213;50.858;3.964;2022-09-27T07:16:54;13.70;62.60
18177;DHT22;9213;50.858;3.964;2022-09-27T07:19:21;13.70;62.60
18177;DHT22;9213;50.858;3.964;2022-09-27T07:21:49;13.70;63.40
18177;DHT22;9213;50.858;3.964;2022-09-27T07:24:17;13.70;62.60
18177;DHT22;9213;50.858;3.964;2022-09-27T07:26:43;13.70;62.70
18177;DHT22;9213;50.858;3.964;2022-09-27T07:29:13;13.70;62.60
18177;DHT22;9213;50.858;3.964;2022-09-27T07:31:41;13.80;62.60
18177;DHT22;9213;50.858;3.964;2022-09-27T07:34:08;13.80;62.50
18177;DHT22;9213;50.858;3.964;2022-09-27T07:36:35;13.80;62.40
18177;DHT22;9213;50.858;3.964;2022-09-27T07:39:02;13.90;62.50
18177;DHT22;9213;50.858;3.964;2022-09-27T07:41:29;13.90;62.40
18177;DHT22;9213;50.858;3.964;2022-09-27T07:43:56;14.00;62.30
18177;DHT22;9213;50.858;3.964;2022-09-27T07:46:25;14.00;62.20
18177;DHT22;9213;50.858;3.964;2022-09-27T07:48:52;14.10;62.10
18177;DHT22;9213;50.858;3.964;2022-09-27T07:51:19;14.10;62.00
18177;DHT22;9213;50.858;3.964;2022-09-27T07:53:46;14.10;62.00
18177;DHT22;9213;50.858;3.964;2022-09-27T07:56:12;14.10;62.00
18177;DHT22;9213;50.858;3.964;2022-09-27T07:58:39;14.20;61.90
18177;DHT22;9213;50.858;3.964;2022-09-27T08:01:07;14.20;62.70
18177;DHT22;9213;50.858;3.964;2022-09-27T08:03:35;14.30;61.90
18177;DHT22;9213;50.858;3.964;2022-09-27T08:06:03;14.30;61.80
18177;DHT22;9213;50.858;3.964;2022-09-27T08:08:30;14.30;61.70
18177;DHT22;9213;50.858;3.964;2022-09-27T08:10:56;14.40;61.50
18177;DHT22;9213;50.858;3.964;2022-09-27T08:13:23;14.40;61.40
18177;DHT22;9213;50.858;3.964;2022-09-27T08:15:50;14.30;61.30
18177;DHT22;9213;50.858;3.964;2022-09-27T08:18:17;14.40;61.30
18177;DHT22;9213;50.858;3.964;2022-09-27T08:20:47;14.40;61.30
18177;DHT22;9213;50.858;3.964;2022-09-27T08:23:14;14.40;61.30
18177;DHT22;9213;50.858;3.964;2022-09-27T08:25:41;14.40;61.10
18177;DHT22;9213;50.858;3.964;2022-09-27T08:28:08;14.40;61.00
18177;DHT22;9213;50.858;3.964;2022-09-27T08:30:35;14.50;61.10
18177;DHT22;9213;50.858;3.964;2022-09-27T08:33:02;14.50;61.20
18177;DHT22;9213;50.858;3.964;2022-09-27T08:35:31;14.50;61.30
18177;DHT22;9213;50.858;3.964;2022-09-27T08:38:00;14.50;61.20
18177;DHT22;9213;50.858;3.964;2022-09-27T08:40:41;14.50;61.30
18177;DHT22;9213;50.858;3.964;2022-09-27T08:43:15;14.50;61.40
18177;DHT22;9213;50.858;3.964;2022-09-27T08:45:54;14.50;61.50
18177;DHT22;9213;50.858;3.964;2022-09-27T08:48:27;14.50;62.50
18177;DHT22;9213;50.858;3.964;2022-09-27T08:50:56;14.50;61.70
18177;DHT22;9213;50.858;3.964;2022-09-27T08:53:27;14.50;62.00
18177;DHT22;9213;50.858;3.964;2022-09-27T08:55:58;14.60;61.80
18177;DHT22;9213;50.858;3.964;2022-09-27T08:58:31;14.70;61.60
18177;DHT22;9213;50.858;3.964;2022-09-27T09:01:02;14.70;61.40
18177;DHT22;9213;50.858;3.964;2022-09-27T09:03:35;14.70;61.50
18177;DHT22;9213;50.858;3.964;2022-09-27T09:06:10;14.80;61.70
18177;DHT22;9213;50.858;3.964;2022-09-27T09:08:50;14.90;61.70
18177;DHT22;9213;50.858;3.964;2022-09-27T09:11:26;15.00;61.40
18177;DHT22;9213;50.858;3.964;2022-09-27T09:17:19;15.30;61.20
18177;DHT22;9213;50.858;3.964;2022-09-27T09:20:15;15.50;60.50
18177;DHT22;9213;50.858;3.964;2022-09-27T09:23:01;15.70;60.40
18177;DHT22;9213;50.858;3.964;2022-09-27T09:25:39;15.70;59.80
18177;DHT22;9213;50.858;3.964;2022-09-27T09:28:23;15.90;59.60
18177;DHT22;9213;50.858;3.964;2022-09-27T09:31:00;16.00;59.40
18177;DHT22;9213;50.858;3.964;2022-09-27T09:33:31;16.20;59.10
18177;DHT22;9213;50.858;3.964;2022-09-27T09:36:03;16.30;58.60
18177;DHT22;9213;50.858;3.964;2022-09-27T09:38:36;16.50;58.50
18177;DHT22;9213;50.858;3.964;2022-09-27T09:41:11;16.70;58.10
18177;DHT22;9213;50.858;3.964;2022-09-27T09:43:45;16.90;58.10
18177;DHT22;9213;50.858;3.964;2022-09-27T09:46:17;17.20;57.60
18177;DHT22;9213;50.858;3.964;2022-09-27T09:48:49;17.40;56.50
18177;DHT22;9213;50.858;3.964;2022-09-27T09:51:21;17.60;56.60
18177;DHT22;9213;50.858;3.964;2022-09-27T09:53:54;17.90;56.00
18177;DHT22;9213;50.858;3.964;2022-09-27T09:56:28;18.30;54.80
18177;DHT22;9213;50.858;3.964;2022-09-27T09:58:59;18.60;54.00
18177;DHT22;9213;50.858;3.964;2022-09-27T10:01:29;18.80;53.30
18177;DHT22;9213;50.858;3.964;2022-09-27T10:03:59;19.00;53.20
18177;DHT22;9213;50.858;3.964;2022-09-27T10:06:27;19.20;51.70
18177;DHT22;9213;50.858;3.964;2022-09-27T10:08:54;19.20;50.90
18177;DHT22;9213;50.858;3.964;2022-09-27T10:11:25;19.20;50.50
18177;DHT22;9213;50.858;3.964;2022-09-27T10:13:52;19.10;50.80
18177;DHT22;9213;50.858;3.964;2022-09-27T10:16:21;19.00;50.60
18177;DHT22;9213;50.858;3.964;2022-09-27T10:18:50;18.90;49.90
18177;DHT22;9213;50.858;3.964;2022-09-27T10:21:21;18.80;49.90
18177;DHT22;9213;50.858;3.964;2022-09-27T10:24:07;18.80;50.20
18177;DHT22;9213;50.858;3.964;2022-09-27T10:26:37;18.80;50.60
18177;DHT22;9213;50.858;3.964;2022-09-27T10:29:19;18.80;50.10
18177;DHT22;9213;50.858;3.964;2022-09-27T10:31:48;18.90;49.60
18177;DHT22;9213;50.858;3.964;2022-09-27T10:34:23;19.00;49.60
18177;DHT22;9213;50.858;3.964;2022-09-27T10:37:02;19.10;49.10
18177;DHT22;9213;50.858;3.964;2022-09-27T10:39:30;19.20;48.00
18177;DHT22;9213;50.858;3.964;2022-09-27T10:41:58;19.10;47.00
18177;DHT22;9213;50.858;3.964;2022-09-27T10:44:26;19.00;46.70
18177;DHT22;9213;50.858;3.964;2022-09-27T10:46:55;18.90;46.70
18177;DHT22;9213;50.858;3.964;2022-09-27T10:49:26;18.80;46.80
18177;DHT22;9213;50.858;3.964;2022-09-27T10:51:55;18.70;47.10
18177;DHT22;9213;50.858;3.964;2022-09-27T10:54:25;18.50;47.30
18177;DHT22;9213;50.858;3.964;2022-09-27T10:56:55;18.40;47.50
18177;DHT22;9213;50.858;3.964;2022-09-27T10:59:24;18.20;47.80
18177;DHT22;9213;50.858;3.964;2022-09-27T11:01:52;18.10;48.50
18177;DHT22;9213;50.858;3.964;2022-09-27T11:04:23;18.10;48.90
18177;DHT22;9213;50.858;3.964;2022-09-27T11:07:05;18.20;48.60
18177;DHT22;9213;50.858;3.964;2022-09-27T11:09:43;18.40;49.10
18177;DHT22;9213;50.858;3.964;2022-09-27T11:12:11;18.50;47.10
18177;DHT22;9213;50.858;3.964;2022-09-27T11:14:40;18.50;46.80
18177;DHT22;9213;50.858;3.964;2022-09-27T11:17:14;18.40;48.00
18177;DHT22;9213;50.858;3.964;2022-09-27T11:20:01;18.30;48.10
18177;DHT22;9213;50.858;3.964;2022-09-27T11:22:51;17.90;48.10
18177;DHT22;9213;50.858;3.964;2022-09-27T11:25:30;17.60;49.00
18177;DHT22;9213;50.858;3.964;2022-09-27T11:28:03;17.10;50.10
18177;DHT22;9213;50.858;3.964;2022-09-27T11:30:42;16.90;50.80
18177;DHT22;9213;50.858;3.964;2022-09-27T11:33:32;16.70;51.70
18177;DHT22;9213;50.858;3.964;2022-09-27T11:36:04;16.70;52.60
18177;DHT22;9213;50.858;3.964;2022-09-27T11:38:45;16.80;52.70
18177;DHT22;9213;50.858;3.964;2022-09-27T11:41:43;16.90;53.00
18177;DHT22;9213;50.858;3.964;2022-09-27T11:47:21;17.50;53.10
18177;DHT22;9213;50.858;3.964;2022-09-27T11:50:17;17.70;52.70
18177;DHT22;9213;50.858;3.964;2022-09-27T11:52:56;18.00;52.50
18177;DHT22;9213;50.858;3.964;2022-09-27T11:55:37;18.20;51.40
18177;DHT22;9213;50.858;3.964;2022-09-27T11:58:16;18.40;51.00
18177;DHT22;9213;50.858;3.964;2022-09-27T12:00:55;18.50;51.20
18177;DHT22;9213;50.858;3.964;2022-09-27T12:03:47;18.70;50.90
18177;DHT22;9213;50.858;3.964;2022-09-27T12:06:21;18.90;51.30
18177;DHT22;9213;50.858;3.964;2022-09-27T12:09:07;19.00;50.80
18177;DHT22;9213;50.858;3.964;2022-09-27T12:11:39;19.20;50.50
18177;DHT22;9213;50.858;3.964;2022-09-27T12:14:12;19.20;49.10
18177;DHT22;9213;50.858;3.964;2022-09-27T12:16:42;19.30;48.80
18177;DHT22;9213;50.858;3.964;2022-09-27T12:19:16;19.40;48.10
18177;DHT22;9213;50.858;3.964;2022-09-27T12:21:44;19.40;48.00
18177;DHT22;9213;50.858;3.964;2022-09-27T12:24:18;19.30;48.00
18177;DHT22;9213;50.858;3.964;2022-09-27T12:26:47;19.10;47.80
18177;DHT22;9213;50.858;3.964;2022-09-27T12:29:19;18.70;48.70
18177;DHT22;9213;50.858;3.964;2022-09-27T12:31:53;18.40;49.90
18177;DHT22;9213;50.858;3.964;2022-09-27T12:34:30;18.30;51.10
18177;DHT22;9213;50.858;3.964;2022-09-27T12:37:02;18.30;52.00
18177;DHT22;9213;50.858;3.964;2022-09-27T12:39:39;18.30;52.50
18177;DHT22;9213;50.858;3.964;2022-09-27T12:42:15;18.50;51.90
18177;DHT22;9213;50.858;3.964;2022-09-27T12:44:43;18.70;51.70
18177;DHT22;9213;50.858;3.964;2022-09-27T12:47:20;18.70;51.00
18177;DHT22;9213;50.858;3.964;2022-09-27T12:49:59;18.90;51.60
18177;DHT22;9213;50.858;3.964;2022-09-27T12:52:33;19.10;51.40
18177;DHT22;9213;50.858;3.964;2022-09-27T12:58:22;19.30;49.70
18177;DHT22;9213;50.858;3.964;2022-09-27T13:00:57;19.30;49.90
18177;DHT22;9213;50.858;3.964;2022-09-27T13:03:46;19.30;49.80
18177;DHT22;9213;50.858;3.964;2022-09-27T13:06:35;19.30;50.10
18177;DHT22;9213;50.858;3.964;2022-09-27T13:09:22;19.50;50.70
18177;DHT22;9213;50.858;3.964;2022-09-27T13:12:00;19.80;50.20
18177;DHT22;9213;50.858;3.964;2022-09-27T13:14:31;19.90;49.10
18177;DHT22;9213;50.858;3.964;2022-09-27T13:17:00;20.00;48.40
18177;DHT22;9213;50.858;3.964;2022-09-27T13:19:41;20.00;48.10
18177;DHT22;9213;50.858;3.964;2022-09-27T13:22:37;20.00;47.90
18177;DHT22;9213;50.858;3.964;2022-09-27T13:28:34;19.80;48.30
18177;DHT22;9213;50.858;3.964;2022-09-27T13:32:10;19.70;48.90
18177;DHT22;9213;50.858;3.964;2022-09-27T13:34:41;19.70;49.30
18177;DHT22;9213;50.858;3.964;2022-09-27T13:40:25;19.90;48.70
18177;DHT22;9213;50.858;3.964;2022-09-27T13:43:17;19.90;48.80
18177;DHT22;9213;50.858;3.964;2022-09-27T13:45:54;20.00;48.50
18177;DHT22;9213;50.858;3.964;2022-09-27T13:48:26;19.90;48.60
18177;DHT22;9213;50.858;3.964;2022-09-27T13:50:58;19.90;48.50
18177;DHT22;9213;50.858;3.964;2022-09-27T13:53:30;19.90;47.10
18177;DHT22;9213;50.858;3.964;2022-09-27T13:55:59;19.90;47.30
18177;DHT22;9213;50.858;3.964;2022-09-27T13:58:43;19.90;47.10
18177;DHT22;9213;50.858;3.964;2022-09-27T14:01:21;19.90;47.40
18177;DHT22;9213;50.858;3.964;2022-09-27T14:03:51;19.90;46.50
18177;DHT22;9213;50.858;3.964;2022-09-27T14:06:21;19.90;46.80
18177;DHT22;9213;50.858;3.964;2022-09-27T14:08:51;19.90;47.10
18177;DHT22;9213;50.858;3.964;2022-09-27T14:11:23;20.00;46.10
18177;DHT22;9213;50.858;3.964;2022-09-27T14:13:51;20.00;45.50
18177;DHT22;9213;50.858;3.964;2022-09-27T14:16:20;19.90;44.60
18177;DHT22;9213;50.858;3.964;2022-09-27T14:18:49;19.70;44.40
18177;DHT22;9213;50.858;3.964;2022-09-27T14:21:27;19.40;45.30
18177;DHT22;9213;50.858;3.964;2022-09-27T14:24:23;19.10;46.50
18177;DHT22;9213;50.858;3.964;2022-09-27T14:27:04;18.80;47.30
18177;DHT22;9213;50.858;3.964;2022-09-27T14:29:36;18.60;48.50
18177;DHT22;9213;50.858;3.964;2022-09-27T14:32:09;18.50;50.20
18177;DHT22;9213;50.858;3.964;2022-09-27T14:34:37;18.50;50.70
18177;DHT22;9213;50.858;3.964;2022-09-27T14:37:11;18.60;50.60
18177;DHT22;9213;50.858;3.964;2022-09-27T14:39:56;18.70;50.30
18177;DHT22;9213;50.858;3.964;2022-09-27T14:42:25;18.80;49.80
18177;DHT22;9213;50.858;3.964;2022-09-27T14:44:55;18.80;49.60
18177;DHT22;9213;50.858;3.964;2022-09-27T14:47:27;18.80;49.80
18177;DHT22;9213;50.858;3.964;2022-09-27T14:49:56;18.70;49.90
18177;DHT22;9213;50.858;3.964;2022-09-27T14:52:25;18.60;50.60
18177;DHT22;9213;50.858;3.964;2022-09-27T14:54:55;18.50;51.60
18177;DHT22;9213;50.858;3.964;2022-09-27T14:57:24;18.50;50.90
18177;DHT22;9213;50.858;3.964;2022-09-27T14:59:52;18.50;51.10
18177;DHT22;9213;50.858;3.964;2022-09-27T15:02:20;18.50;51.60
18177;DHT22;9213;50.858;3.964;2022-09-27T15:04:50;18.60;52.10
18177;DHT22;9213;50.858;3.964;2022-09-27T15:07:19;18.70;52.10
18177;DHT22;9213;50.858;3.964;2022-09-27T15:09:48;18.80;51.80
18177;DHT22;9213;50.858;3.964;2022-09-27T15:12:21;18.90;50.90
18177;DHT22;9213;50.858;3.964;2022-09-27T15:14:49;19.00;51.00
18177;DHT22;9213;50.858;3.964;2022-09-27T15:17:18;18.90;50.60
18177;DHT22;9213;50.858;3.964;2022-09-27T15:19:58;18.90;50.80
18177;DHT22;9213;50.858;3.964;2022-09-27T15:22:34;18.90;51.10
18177;DHT22;9213;50.858;3.964;2022-09-27T15:25:10;18.80;50.90
18177;DHT22;9213;50.858;3.964;2022-09-27T15:27:48;18.80;51.00
18177;DHT22;9213;50.858;3.964;2022-09-27T15:30:18;18.80;50.80
18177;DHT22;9213;50.858;3.964;2022-09-27T15:32:49;18.80;50.30
18177;DHT22;9213;50.858;3.964;2022-09-27T15:35:25;18.70;50.10
18177;DHT22;9213;50.858;3.964;2022-09-27T15:37:59;18.60;49.90
18177;DHT22;9213;50.858;3.964;2022-09-27T15:41:02;18.60;50.10
18177;DHT22;9213;50.858;3.964;2022-09-27T15:43:32;18.60;50.80
18177;DHT22;9213;50.858;3.964;2022-09-27T15:46:02;18.50;50.90
18177;DHT22;9213;50.858;3.964;2022-09-27T15:48:30;18.50;51.10
18177;DHT22;9213;50.858;3.964;2022-09-27T15:50:59;18.50;50.50
18177;DHT22;9213;50.858;3.964;2022-09-27T15:53:41;18.50;50.50
18177;DHT22;9213;50.858;3.964;2022-09-27T15:56:14;18.50;50.80
18177;DHT22;9213;50.858;3.964;2022-09-27T15:58:42;18.50;50.70
18177;DHT22;9213;50.858;3.964;2022-09-27T16:01:19;18.40;50.80
18177;DHT22;9213;50.858;3.964;2022-09-27T16:03:47;18.30;50.90
18177;DHT22;9213;50.858;3.964;2022-09-27T16:06:15;18.30;51.10
18177;DHT22;9213;50.858;3.964;2022-09-27T16:08:43;18.30;52.00
18177;DHT22;9213;50.858;3.964;2022-09-27T16:11:13;18.30;51.10
18177;DHT22;9213;50.858;3.964;2022-09-27T16:13:40;18.30;51.10
18177;DHT22;9213;50.858;3.964;2022-09-27T16:16:13;18.30;51.60
18177;DHT22;9213;50.858;3.964;2022-09-27T16:18:41;18.30;51.60
18177;DHT22;9213;50.858;3.964;2022-09-27T16:21:08;18.30;51.20
18177;DHT22;9213;50.858;3.964;2022-09-27T16:23:37;18.30;51.60
18177;DHT22;9213;50.858;3.964;2022-09-27T16:26:04;18.30;51.80
18177;DHT22;9213;50.858;3.964;2022-09-27T16:28:31;18.20;52.10
18177;DHT22;9213;50.858;3.964;2022-09-27T16:31:03;18.20;52.30
18177;DHT22;9213;50.858;3.964;2022-09-27T16:33:30;18.20;52.00